M I D A S
Marine Information and Data Acquisition System
Tripno 1745 of the Zeeleeuw from 2009-08-04 06:22:04 to 2009-08-04 17:50:58
Back to CruiseResearch ActivitiesStationsMapUnderway DataData graphs

EquipmentUnitsComment
TimeDGPSUTC
LatitudeDGPSDM.mWGS84
LongitudeDGPSDM.mWGS84
HeadingGyrodeg 
SOGDGPSknotsSpeed over ground
COGDGPSdegCourse over ground
DepthEcho soundermeters200 kHz
Missing or incorrect values are displayed as -999
Navigation data collected by the RV Zeeleeuw from 2009-08-04 06:21:46 to 2009-08-04 18:01:26
                                                                                    Next 1000 lines
Time Latitude Longitude Heading SOG COG Depth
2009-08-04 06:21:56 51°13.692 2°55.735 72.8 0.9 271 11.1
2009-08-04 06:22:01 51°13.693 2°55.734 69.2 0.7 284 11.2
2009-08-04 06:22:06 51°13.693 2°55.733 64.3 0.5 292 11.2
2009-08-04 06:22:10 51°13.693 2°55.732 59.8 0.4 315 11.2
2009-08-04 06:22:16 51°13.694 2°55.732 55.3 0.4 339 11.3
2009-08-04 06:22:21 51°13.694 2°55.732 51 0.5 352 11.3
2009-08-04 06:22:25 51°13.695 2°55.732 46.5 0.6 6 11.4
2009-08-04 06:22:30 51°13.696 2°55.732 42.1 0.7 7 11.5
2009-08-04 06:22:35 51°13.697 2°55.733 37.5 0.8 12 11.6
2009-08-04 06:22:40 51°13.698 2°55.733 33.2 0.9 11 11.7
2009-08-04 06:22:45 51°13.699 2°55.734 28.8 1 11 12
2009-08-04 06:22:50 51°13.701 2°55.734 24.7 1.1 9 11.8
2009-08-04 06:22:55 51°13.703 2°55.734 20.8 1.3 7 11.7
2009-08-04 06:23:00 51°13.705 2°55.734 16.8 1.4 5 11.4
2009-08-04 06:23:05 51°13.707 2°55.734 13.1 1.5 3 11.3
2009-08-04 06:23:10 51°13.709 2°55.734 9.3 1.6 2 11.1
2009-08-04 06:23:14 51°13.711 2°55.734 5.8 1.7 359 11.2
2009-08-04 06:23:19 51°13.713 2°55.734 2.2 1.7 357 11.2
2009-08-04 06:23:25 51°13.716 2°55.734 358.6 1.8 354 11
2009-08-04 06:23:30 51°13.719 2°55.733 355.3 2 350 10.8
2009-08-04 06:23:34 51°13.721 2°55.732 351.5 2.2 346 10.7
2009-08-04 06:23:39 51°13.724 2°55.731 347.3 2.3 343 -999
2009-08-04 06:23:45 51°13.728 2°55.728 342.7 2.5 337 10.9
2009-08-04 06:23:50 51°13.731 2°55.726 337.9 2.7 335 10.8
2009-08-04 06:23:56 51°13.736 2°55.722 335.2 3.1 333 10.8
2009-08-04 06:24:01 51°13.74 2°55.718 333.7 3.4 332 10.7
2009-08-04 06:24:06 51°13.745 2°55.714 332.5 3.7 331 10.6
2009-08-04 06:24:10 51°13.749 2°55.711 332.4 4 331 10.5
2009-08-04 06:24:15 51°13.754 2°55.706 332.4 4.2 330 9.9
2009-08-04 06:24:20 51°13.759 2°55.701 332.3 4.5 330 9.6
2009-08-04 06:24:25 51°13.765 2°55.696 332 4.7 330 9.6
2009-08-04 06:24:30 51°13.771 2°55.691 332 4.8 331 9.8
2009-08-04 06:24:35 51°13.777 2°55.685 332.5 5.1 331 10
2009-08-04 06:24:40 51°13.783 2°55.68 332.7 5.3 332 10.3
2009-08-04 06:24:45 51°13.79 2°55.674 332.7 5.6 331 -999
2009-08-04 06:24:50 51°13.797 2°55.668 332.7 5.7 332 10.3
2009-08-04 06:24:55 51°13.804 2°55.661 332.8 5.9 332 10
2009-08-04 06:25:00 51°13.812 2°55.655 333 6.1 332 9.8
2009-08-04 06:25:05 51°13.82 2°55.649 333.4 6.2 332 9.8
2009-08-04 06:25:10 51°13.827 2°55.643 333.8 6.3 333 9.9
2009-08-04 06:25:14 51°13.834 2°55.638 334 6.4 333 9.7
2009-08-04 06:25:20 51°13.844 2°55.631 334.2 6.5 333 9.6
2009-08-04 06:25:25 51°13.852 2°55.624 334.3 6.6 333 9.6
2009-08-04 06:25:29 51°13.859 2°55.619 334.6 6.7 334 9.6
2009-08-04 06:25:34 51°13.867 2°55.612 335 6.7 333 9.3
2009-08-04 06:25:39 51°13.875 2°55.605 335.3 6.8 334 9.9
2009-08-04 06:25:45 51°13.885 2°55.597 335.9 6.9 334 10.1
2009-08-04 06:25:49 51°13.892 2°55.592 335.9 6.9 334 10
2009-08-04 06:25:54 51°13.901 2°55.584 335.1 7 333 10
2009-08-04 06:25:59 51°13.909 2°55.578 334.8 7 334 9.9
2009-08-04 06:26:04 51°13.918 2°55.571 335 7 334 9.9
2009-08-04 06:26:09 51°13.927 2°55.564 335.6 7.1 334 9.9
2009-08-04 06:26:14 51°13.936 2°55.557 335.7 7.1 333 9.9
2009-08-04 06:26:18 51°13.943 2°55.551 335.4 7.1 334 9.8
2009-08-04 06:26:24 51°13.953 2°55.543 335.4 7.1 333 9.9
2009-08-04 06:26:29 51°13.962 2°55.536 335.1 7.1 334 9.9
2009-08-04 06:26:34 51°13.971 2°55.53 335 7.2 333 9.8
2009-08-04 06:26:38 51°13.976 2°55.524 334.8 7.2 333 9.8
2009-08-04 06:26:43 51°13.984 2°55.517 334.7 7.3 334 9.8
2009-08-04 06:26:48 51°13.994 2°55.51 335.1 7.4 334 9.8
2009-08-04 06:26:54 51°14.006 2°55.502 336.1 7.5 335 9.7
2009-08-04 06:26:58 51°14.014 2°55.496 336.7 7.5 335 9.7
2009-08-04 06:27:03 51°14.023 2°55.489 336.9 7.6 335 9.7
2009-08-04 06:27:08 51°14.033 2°55.482 336.5 7.7 335 9.8
2009-08-04 06:27:13 51°14.043 2°55.474 336.4 7.7 335 9.9
2009-08-04 06:27:18 51°14.053 2°55.467 336.9 7.7 335 10
2009-08-04 06:27:23 51°14.063 2°55.46 337.1 7.8 335 10.1
2009-08-04 06:27:28 51°14.073 2°55.452 336.9 7.8 335 10.2
2009-08-04 06:27:33 51°14.083 2°55.445 336.5 7.9 335 10.2
2009-08-04 06:27:38 51°14.093 2°55.437 336.6 7.9 335 10.3
2009-08-04 06:27:43 51°14.103 2°55.43 336.7 7.9 334 10.2
2009-08-04 06:27:48 51°14.113 2°55.422 336.4 7.9 334 10.2
2009-08-04 06:27:53 51°14.122 2°55.414 335.4 7.9 333 10.2
2009-08-04 06:27:57 51°14.13 2°55.407 334.6 7.9 332 10.3
2009-08-04 06:28:02 51°14.139 2°55.399 333.1 7.9 330 10.2
2009-08-04 06:28:07 51°14.149 2°55.39 332.2 7.9 329 10.3
2009-08-04 06:28:12 51°14.158 2°55.38 331.1 7.9 328 10.3
2009-08-04 06:28:17 51°14.167 2°55.371 329.8 7.9 326 10.2
2009-08-04 06:28:22 51°14.176 2°55.361 328.2 8 325 10.2
2009-08-04 06:28:27 51°14.185 2°55.35 326.3 8 323 10.2
2009-08-04 06:28:33 51°14.196 2°55.338 324.5 8 322 10.3
2009-08-04 06:28:37 51°14.203 2°55.329 323.3 8 321 10.5
2009-08-04 06:28:42 51°14.211 2°55.317 322.5 8 320 10.4
2009-08-04 06:28:47 51°14.22 2°55.306 321.5 8 319 10.4
2009-08-04 06:28:53 51°14.23 2°55.292 320.6 8 318 10.4
2009-08-04 06:28:57 51°14.236 2°55.282 319.6 8.1 316 10.3
2009-08-04 06:29:02 51°14.244 2°55.269 318 8.2 315 10.4
2009-08-04 06:29:07 51°14.252 2°55.256 316.6 8.2 314 10.4
2009-08-04 06:29:13 51°14.262 2°55.24 315.8 8.3 314 10.3
2009-08-04 06:29:17 51°14.268 2°55.229 315.2 8.4 312 10.4
2009-08-04 06:29:22 51°14.275 2°55.215 314 8.4 311 10.3
2009-08-04 06:29:27 51°14.283 2°55.201 312.7 8.5 310 10
2009-08-04 06:29:32 51°14.29 2°55.187 311.6 8.5 310 9.9
2009-08-04 06:29:37 51°14.298 2°55.172 310.9 8.5 309 9.8
2009-08-04 06:29:42 51°14.305 2°55.157 310 8.5 308 10
2009-08-04 06:29:47 51°14.312 2°55.142 308.7 8.5 307 10.3
2009-08-04 06:29:52 51°14.319 2°55.127 307.9 8.5 307 10.4
2009-08-04 06:29:57 51°14.326 2°55.112 308.4 8.6 308 10.3
2009-08-04 06:30:02 51°14.334 2°55.097 309.1 8.7 308 10.3
2009-08-04 06:30:07 51°14.341 2°55.082 309.4 8.7 308 10.2
2009-08-04 06:30:12 51°14.349 2°55.067 309.4 8.8 308 10
2009-08-04 06:30:17 51°14.356 2°55.051 309.5 8.8 307 9.9
2009-08-04 06:30:22 51°14.364 2°55.035 309.8 8.9 306 9.3
2009-08-04 06:30:27 51°14.37 2°55.019 308.9 8.9 303 9.1
2009-08-04 06:30:33 51°14.378 2°54.999 306.4 8.9 303 9.1
2009-08-04 06:30:37 51°14.383 2°54.985 304.1 8.9 299 9
2009-08-04 06:30:42 51°14.388 2°54.968 302 8.9 296 9.1
2009-08-04 06:30:47 51°14.393 2°54.949 297.9 8.9 289 9.1
2009-08-04 06:30:53 51°14.398 2°54.927 294.4 9 289 9.1
2009-08-04 06:30:57 51°14.4 2°54.911 291.4 9 286 9.2
2009-08-04 06:31:02 51°14.403 2°54.892 289.3 9 283 9.2
2009-08-04 06:31:07 51°14.406 2°54.872 286.1 9.1 280 9.2
2009-08-04 06:31:13 51°14.407 2°54.848 282 9.3 274 9.1
2009-08-04 06:31:17 51°14.407 2°54.831 278.2 9.4 273 9.2
2009-08-04 06:31:22 51°14.407 2°54.81 275.7 9.5 270 9.2
2009-08-04 06:31:27 51°14.407 2°54.789 273.1 9.7 268 9.2
2009-08-04 06:31:32 51°14.406 2°54.768 269.4 9.8 263 9.3
2009-08-04 06:31:37 51°14.404 2°54.746 265.5 9.9 260 9.3
2009-08-04 06:31:42 51°14.401 2°54.724 262 10.1 256 9.3
2009-08-04 06:31:47 51°14.396 2°54.702 257.9 10.4 253 9.3
2009-08-04 06:31:52 51°14.392 2°54.68 254.8 10.6 251 9.3
2009-08-04 06:31:57 51°14.387 2°54.658 253.4 10.8 251 9.3
2009-08-04 06:32:02 51°14.381 2°54.635 251.5 11 248 9.2
2009-08-04 06:32:07 51°14.375 2°54.613 249.4 11.2 247 9.2
2009-08-04 06:32:12 51°14.369 2°54.59 248.5 11.4 247 8.9
2009-08-04 06:32:17 51°14.363 2°54.566 248.2 11.5 246 8.6
2009-08-04 06:32:22 51°14.356 2°54.543 247.6 11.6 247 8.4
2009-08-04 06:32:27 51°14.35 2°54.519 247.6 11.7 247 8.4
2009-08-04 06:32:32 51°14.343 2°54.495 247.6 11.8 247 8.3
2009-08-04 06:32:37 51°14.337 2°54.471 247.7 11.8 247 8.3
2009-08-04 06:32:42 51°14.33 2°54.447 248 11.9 247 8.4
2009-08-04 06:32:47 51°14.323 2°54.423 247.6 12 245 8.4
2009-08-04 06:32:53 51°14.315 2°54.394 246.9 12 246 8.3
2009-08-04 06:32:57 51°14.31 2°54.375 246.7 12 246 8.4
2009-08-04 06:33:02 51°14.303 2°54.351 246.9 12.1 246 8.3
2009-08-04 06:33:07 51°14.296 2°54.327 247.2 12.1 246 8.4
2009-08-04 06:33:13 51°14.287 2°54.298 246.9 12.1 245 8.3
2009-08-04 06:33:17 51°14.282 2°54.278 246.5 12.1 245 8.3
2009-08-04 06:33:22 51°14.275 2°54.254 246.3 12.1 245 8.3
2009-08-04 06:33:27 51°14.268 2°54.23 246.2 12.1 245 8.2
2009-08-04 06:33:33 51°14.259 2°54.201 246.2 12.1 245 8.3
2009-08-04 06:33:37 51°14.253 2°54.181 246.1 12.1 245 8.3
2009-08-04 06:33:42 51°14.246 2°54.157 245.8 12.1 244 8.2
2009-08-04 06:33:47 51°14.239 2°54.133 245.5 12.1 244 8.2
2009-08-04 06:33:53 51°14.23 2°54.105 245.4 12.1 244 8.2
2009-08-04 06:33:57 51°14.224 2°54.085 245.4 12.1 244 8.2
2009-08-04 06:34:02 51°14.217 2°54.061 245.4 12.1 245 8.3
2009-08-04 06:34:07 51°14.21 2°54.037 245.6 12.1 244 8.3
2009-08-04 06:34:12 51°14.202 2°54.013 245.7 12.1 245 8
2009-08-04 06:34:17 51°14.195 2°53.989 245.7 12.1 245 8.2
2009-08-04 06:34:22 51°14.188 2°53.965 245.7 12.1 244 8.3
2009-08-04 06:34:27 51°14.181 2°53.94 245.8 12.1 245 8.1
2009-08-04 06:34:32 51°14.174 2°53.916 245.9 12.2 244 8.2
2009-08-04 06:34:37 51°14.166 2°53.892 245.5 12.2 245 8.1
2009-08-04 06:34:42 51°14.159 2°53.868 245.5 12.2 245 8.3
2009-08-04 06:34:47 51°14.152 2°53.844 245.7 12.2 245 8.3
2009-08-04 06:34:53 51°14.143 2°53.814 246.1 12.2 245 8.3
2009-08-04 06:34:57 51°14.137 2°53.795 246.1 12.2 245 8.3
2009-08-04 06:35:02 51°14.13 2°53.77 246.1 12.2 245 8.4
2009-08-04 06:35:07 51°14.123 2°53.746 246.4 12.2 245 8.3
2009-08-04 06:35:13 51°14.115 2°53.717 246.3 12.2 245 8.3
2009-08-04 06:35:17 51°14.109 2°53.697 246.3 12.2 245 8.3
2009-08-04 06:35:22 51°14.102 2°53.673 246.4 12.2 245 8.3
2009-08-04 06:35:27 51°14.095 2°53.649 246.3 12.2 245 8.4
2009-08-04 06:35:33 51°14.086 2°53.619 246.1 12.2 245 8.4
2009-08-04 06:35:37 51°14.08 2°53.6 246.1 12.2 245 8.4
2009-08-04 06:35:42 51°14.073 2°53.576 246.1 12.2 245 8.4
2009-08-04 06:35:47 51°14.066 2°53.551 246.1 12.2 245 8.4
2009-08-04 06:35:53 51°14.057 2°53.522 246 12.2 245 8.4
2009-08-04 06:35:57 51°14.051 2°53.503 246.1 12.2 245 8.5
2009-08-04 06:36:02 51°14.044 2°53.478 246.1 12.2 245 8.5
2009-08-04 06:36:07 51°14.037 2°53.454 246.5 12.2 245 8.5
2009-08-04 06:36:12 51°14.031 2°53.429 246.7 12.2 246 8.5
2009-08-04 06:36:17 51°14.023 2°53.405 246.8 12.2 246 8.6
2009-08-04 06:36:22 51°14.016 2°53.38 247 12.2 246 8.6
2009-08-04 06:36:27 51°14.009 2°53.356 246.9 12.2 246 8.6
2009-08-04 06:36:32 51°14.002 2°53.331 246.8 12.2 245 8.6
2009-08-04 06:36:37 51°13.995 2°53.306 246.6 12.2 245 8.7
2009-08-04 06:36:42 51°13.988 2°53.282 246.7 12.2 245 8.7
2009-08-04 06:36:47 51°13.981 2°53.257 247 12.2 246 8.7
2009-08-04 06:36:52 51°13.974 2°53.233 247.2 12.2 245 8.9
2009-08-04 06:36:57 51°13.967 2°53.208 247.1 12.2 246 8.9
2009-08-04 06:37:02 51°13.96 2°53.184 247 12.2 246 8.8
2009-08-04 06:37:07 51°13.953 2°53.159 247.3 12.2 246 8.9
2009-08-04 06:37:13 51°13.945 2°53.129 247.4 12.2 246 8.9
2009-08-04 06:37:17 51°13.939 2°53.109 247.4 12.2 246 8.8
2009-08-04 06:37:22 51°13.932 2°53.085 247.3 12.3 246 9.1
2009-08-04 06:37:27 51°13.926 2°53.06 247.7 12.3 247 9.3
2009-08-04 06:37:33 51°13.917 2°53.03 248.3 12.3 247 9.2
2009-08-04 06:37:37 51°13.912 2°53.01 248.4 12.3 246 9.1
2009-08-04 06:37:42 51°13.905 2°52.985 247.8 12.3 246 9.2
2009-08-04 06:37:47 51°13.898 2°52.96 247.5 12.3 246 9.2
2009-08-04 06:37:53 51°13.89 2°52.931 247.2 12.3 246 9.2
2009-08-04 06:37:57 51°13.884 2°52.911 247.2 12.3 246 9.3
2009-08-04 06:38:02 51°13.877 2°52.886 247.8 12.3 247 9.3
2009-08-04 06:38:07 51°13.871 2°52.861 248.1 12.3 247 9.3
2009-08-04 06:38:13 51°13.862 2°52.831 248.3 12.3 247 9.3
2009-08-04 06:38:17 51°13.857 2°52.811 248.3 12.3 246 9.4
2009-08-04 06:38:22 51°13.85 2°52.786 247.9 12.3 246 9.4
2009-08-04 06:38:27 51°13.843 2°52.761 247.4 12.3 246 9.4
2009-08-04 06:38:32 51°13.836 2°52.736 247.1 12.3 246 9.4
2009-08-04 06:38:37 51°13.829 2°52.711 247 12.3 246 9.5
2009-08-04 06:38:42 51°13.822 2°52.686 247.8 12.3 247 9.3
2009-08-04 06:38:47 51°13.815 2°52.662 247.9 12.3 246 9.4
2009-08-04 06:38:52 51°13.808 2°52.637 247.9 12.3 246 9.6
2009-08-04 06:38:57 51°13.801 2°52.612 247.5 12.3 245 9.4
2009-08-04 06:39:02 51°13.794 2°52.587 247 12.3 246 9.4
2009-08-04 06:39:07 51°13.787 2°52.563 246.9 12.3 245 9.5
2009-08-04 06:39:12 51°13.78 2°52.538 246.8 12.3 245 9.5
2009-08-04 06:39:17 51°13.773 2°52.513 246.9 12.3 245 9.4
2009-08-04 06:39:22 51°13.765 2°52.489 246.8 12.3 245 9.2
2009-08-04 06:39:27 51°13.758 2°52.464 246.7 12.3 246 9.5
2009-08-04 06:39:33 51°13.75 2°52.434 247.1 12.3 246 9.5
2009-08-04 06:39:37 51°13.744 2°52.414 247.4 12.3 246 9.7
2009-08-04 06:39:42 51°13.737 2°52.389 247.5 12.4 245 9.7
2009-08-04 06:39:47 51°13.73 2°52.365 247.2 12.4 246 9.7
2009-08-04 06:39:53 51°13.722 2°52.335 247.4 12.4 246 9.7
2009-08-04 06:39:57 51°13.716 2°52.315 247.4 12.4 246 9.7
2009-08-04 06:40:02 51°13.709 2°52.29 247.3 12.4 245 9.7
2009-08-04 06:40:07 51°13.702 2°52.265 246.8 12.4 245 9.8
2009-08-04 06:40:13 51°13.693 2°52.235 246.8 12.4 246 9.8
2009-08-04 06:40:17 51°13.687 2°52.215 246.9 12.4 245 9.8
2009-08-04 06:40:22 51°13.68 2°52.191 247 12.4 246 9.8
2009-08-04 06:40:27 51°13.673 2°52.166 247.1 12.4 246 9.8
2009-08-04 06:40:32 51°13.666 2°52.14 247.6 12.4 246 9.9
2009-08-04 06:40:37 51°13.659 2°52.115 248 12.4 246 9.9
2009-08-04 06:40:42 51°13.652 2°52.09 247.8 12.4 246 9.8
2009-08-04 06:40:47 51°13.645 2°52.065 247.6 12.4 246 9.9
2009-08-04 06:40:52 51°13.638 2°52.04 247.2 12.4 245 9.9
2009-08-04 06:40:57 51°13.631 2°52.015 247 12.4 245 10
2009-08-04 06:41:02 51°13.624 2°51.99 246.9 12.4 246 10
2009-08-04 06:41:07 51°13.617 2°51.966 246.9 12.4 245 9.8
2009-08-04 06:41:12 51°13.609 2°51.941 246.9 12.4 246 10.1
2009-08-04 06:41:17 51°13.601 2°51.916 246.9 12.4 246 10.1
2009-08-04 06:41:22 51°13.593 2°51.891 247.1 12.4 246 9.7
2009-08-04 06:41:27 51°13.585 2°51.866 247.1 12.4 246 9.7
2009-08-04 06:41:32 51°13.578 2°51.841 246.8 12.4 245 9.9
2009-08-04 06:41:37 51°13.571 2°51.816 246.8 12.2 246 10
2009-08-04 06:41:42 51°13.565 2°51.792 247.1 11.6 246 10
2009-08-04 06:41:47 51°13.558 2°51.77 247.3 11.2 246 10.1
2009-08-04 06:41:53 51°13.551 2°51.744 247.2 10.7 245 10.1
2009-08-04 06:41:57 51°13.547 2°51.727 246.9 10.4 245 10.2
2009-08-04 06:42:02 51°13.541 2°51.707 246.7 10.1 245 10.1
2009-08-04 06:42:07 51°13.535 2°51.687 246.9 9.9 246 10.2
2009-08-04 06:42:13 51°13.529 2°51.663 247.5 9.7 246 10.2
2009-08-04 06:42:17 51°13.524 2°51.648 247.9 9.5 246 10.2
2009-08-04 06:42:22 51°13.519 2°51.629 248.2 9.4 247 10.2
2009-08-04 06:42:27 51°13.515 2°51.61 248.7 9.3 247 10.3
2009-08-04 06:42:33 51°13.509 2°51.587 249 9.1 247 10.3
2009-08-04 06:42:37 51°13.505 2°51.573 249.1 9 247 10.3
2009-08-04 06:42:42 51°13.5 2°51.555 249.1 8.8 247 10.3
2009-08-04 06:42:47 51°13.496 2°51.537 249 8.3 247 10.4
2009-08-04 06:42:53 51°13.491 2°51.518 248.9 7.9 247 10.4
2009-08-04 06:42:57 51°13.487 2°51.506 248.5 7.5 246 10.4
2009-08-04 06:43:02 51°13.483 2°51.492 248.1 7.2 246 10.4
2009-08-04 06:43:07 51°13.479 2°51.478 247.6 6.8 245 10.4
2009-08-04 06:43:12 51°13.475 2°51.465 245.5 6.4 242 10.5
2009-08-04 06:43:17 51°13.471 2°51.453 243.4 6 241 10.5
2009-08-04 06:43:22 51°13.467 2°51.443 240 5.7 239 10.4
2009-08-04 06:43:27 51°13.463 2°51.432 237.7 5.5 237 10.4
2009-08-04 06:43:32 51°13.458 2°51.423 235.3 5.2 236 10.5
2009-08-04 06:43:37 51°13.455 2°51.414 233.8 4.8 236 10.5
2009-08-04 06:43:42 51°13.451 2°51.405 232.3 4.4 236 10.4
2009-08-04 06:43:47 51°13.448 2°51.398 232.7 4 238 10.5
2009-08-04 06:43:53 51°13.445 2°51.39 235.1 3.6 240 10.5
2009-08-04 06:43:57 51°13.443 2°51.384 238.7 3.2 242 10.5
2009-08-04 06:44:02 51°13.441 2°51.379 243.2 2.9 245 10.5
2009-08-04 06:44:07 51°13.44 2°51.374 248 2.5 246 10.5
2009-08-04 06:44:13 51°13.439 2°51.368 252.7 2.2 248 10.5
2009-08-04 06:44:17 51°13.438 2°51.365 257.2 1.9 248 10.5
2009-08-04 06:44:22 51°13.437 2°51.361 261.6 1.7 248 10.6
2009-08-04 06:44:27 51°13.436 2°51.358 265.7 1.6 249 10.5
2009-08-04 06:44:33 51°13.436 2°51.354 269.4 1.5 251 10.5
2009-08-04 06:44:37 51°13.435 2°51.352 272.3 1.4 253 10.5
2009-08-04 06:44:42 51°13.434 2°51.349 274.9 1.4 252 10.5
2009-08-04 06:44:47 51°13.434 2°51.346 277.1 1.3 255 10.5
2009-08-04 06:44:53 51°13.434 2°51.342 279 1.3 255 10.5
2009-08-04 06:44:57 51°13.433 2°51.34 280.8 1.3 255 10.5
2009-08-04 06:45:02 51°13.433 2°51.338 282.5 1.2 256 10.6
2009-08-04 06:45:07 51°13.433 2°51.335 284.3 1.2 256 10.5
2009-08-04 06:45:12 51°13.432 2°51.332 285.9 1.2 257 10.5
2009-08-04 06:45:17 51°13.432 2°51.33 287.5 1.2 256 10.5
2009-08-04 06:45:22 51°13.432 2°51.327 289.3 1.2 256 10.5
2009-08-04 06:45:27 51°13.431 2°51.325 290.4 1.1 257 10.5
2009-08-04 06:45:32 51°13.431 2°51.322 291.6 1.1 256 10.6
2009-08-04 06:45:37 51°13.431 2°51.32 292.7 1.1 257 10.6
2009-08-04 06:45:42 51°13.43 2°51.318 293.8 1.1 256 10.6
2009-08-04 06:45:47 51°13.43 2°51.316 294.8 1 257 10.6
2009-08-04 06:45:52 51°13.43 2°51.313 295.5 1 257 10.6
2009-08-04 06:45:57 51°13.429 2°51.311 296.4 1 257 10.6
2009-08-04 06:46:02 51°13.429 2°51.309 297.2 1 258 10.6
2009-08-04 06:46:07 51°13.429 2°51.307 297.7 1 259 10.6
2009-08-04 06:46:13 51°13.428 2°51.304 298.4 1 258 10.5
2009-08-04 06:46:17 51°13.428 2°51.302 299 1 260 10.6
2009-08-04 06:46:22 51°13.428 2°51.3 299.4 1 260 10.6
2009-08-04 06:46:27 51°13.428 2°51.298 299.8 1 261 10.5
2009-08-04 06:46:33 51°13.428 2°51.295 299.9 1 259 10.6
2009-08-04 06:46:37 51°13.427 2°51.293 300 1 260 10.6
2009-08-04 06:46:42 51°13.427 2°51.291 300.1 1 259 10.6
2009-08-04 06:46:47 51°13.427 2°51.289 300.1 1 260 10.6
2009-08-04 06:46:53 51°13.427 2°51.287 299.9 1 260 10.6
2009-08-04 06:46:57 51°13.427 2°51.285 299.8 1 261 10.6
2009-08-04 06:47:02 51°13.426 2°51.282 299.6 1 260 10.6
2009-08-04 06:47:07 51°13.426 2°51.28 299.5 1 262 10.6
2009-08-04 06:47:12 51°13.426 2°51.278 299.5 1 261 10.6
2009-08-04 06:47:17 51°13.425 2°51.276 299.5 1 262 10.6
2009-08-04 06:47:22 51°13.425 2°51.274 299.4 1 261 10.6
2009-08-04 06:47:27 51°13.425 2°51.272 299.4 1 262 10.6
2009-08-04 06:47:32 51°13.425 2°51.27 299.3 1 261 10.6
2009-08-04 06:47:37 51°13.425 2°51.267 299.2 1 262 10.6
2009-08-04 06:47:42 51°13.425 2°51.265 299.1 1 262 10.6
2009-08-04 06:47:47 51°13.424 2°51.263 298.8 1 262 10.6
2009-08-04 06:47:52 51°13.424 2°51.261 298.5 1 261 10.6
2009-08-04 06:47:57 51°13.424 2°51.259 298.1 1 263 10.6
2009-08-04 06:48:02 51°13.424 2°51.256 297.7 1 263 10.6
2009-08-04 06:48:07 51°13.423 2°51.254 297.3 1 261 10.6
2009-08-04 06:48:12 51°13.423 2°51.252 296.9 1 262 10.6
2009-08-04 06:48:17 51°13.423 2°51.25 296.5 1 261 10.6
2009-08-04 06:48:22 51°13.423 2°51.248 296.2 1 262 10.6
2009-08-04 06:48:27 51°13.422 2°51.246 295.7 1 261 10.6
2009-08-04 06:48:33 51°13.422 2°51.243 295.3 1 262 10.6
2009-08-04 06:48:37 51°13.422 2°51.241 294.8 1 261 10.6
2009-08-04 06:48:42 51°13.422 2°51.239 294.3 1 263 10.7
2009-08-04 06:48:47 51°13.422 2°51.237 293.9 1 262 10.7
2009-08-04 06:48:53 51°13.422 2°51.234 293.4 1 263 10.6
2009-08-04 06:48:57 51°13.421 2°51.233 292.9 1 263 10.6
2009-08-04 06:49:02 51°13.421 2°51.23 292.5 1 264 10.7
2009-08-04 06:49:07 51°13.421 2°51.228 292.1 1 262 10.7
2009-08-04 06:49:13 51°13.421 2°51.226 291.8 1 263 10.7
2009-08-04 06:49:17 51°13.421 2°51.224 291.3 1 262 10.7
2009-08-04 06:49:22 51°13.421 2°51.222 291 1 263 10.7
2009-08-04 06:49:27 51°13.42 2°51.22 290.8 1 263 10.7
2009-08-04 06:49:32 51°13.42 2°51.218 290.4 1 263 10.7
2009-08-04 06:49:37 51°13.42 2°51.216 290.3 0.9 263 10.7
2009-08-04 06:49:42 51°13.42 2°51.213 290 1 262 10.7
2009-08-04 06:49:47 51°13.42 2°51.211 289.7 1 263 10.7
2009-08-04 06:49:52 51°13.42 2°51.209 289.6 1 261 10.7
2009-08-04 06:49:57 51°13.419 2°51.207 289.2 0.9 264 10.7
2009-08-04 06:50:02 51°13.419 2°51.205 289 0.9 262 10.7
2009-08-04 06:50:07 51°13.419 2°51.203 288.5 0.9 263 10.7
2009-08-04 06:50:12 51°13.419 2°51.201 288.2 0.9 263 10.7
2009-08-04 06:50:17 51°13.419 2°51.199 287.8 1 263 10.7
2009-08-04 06:50:22 51°13.419 2°51.197 287.4 1 262 10.7
2009-08-04 06:50:27 51°13.418 2°51.195 286.9 1 263 10.7
2009-08-04 06:50:32 51°13.418 2°51.193 286.6 1 262 10.7
2009-08-04 06:50:37 51°13.418 2°51.191 286.1 0.9 263 10.7
2009-08-04 06:50:42 51°13.418 2°51.189 285.6 0.9 262 10.7
2009-08-04 06:50:47 51°13.418 2°51.186 285.2 0.9 263 10.7
2009-08-04 06:50:53 51°13.417 2°51.184 284.6 0.9 263 10.8
2009-08-04 06:50:57 51°13.417 2°51.183 284.2 0.9 262 10.7
2009-08-04 06:51:02 51°13.417 2°51.18 283.7 0.9 264 10.7
2009-08-04 06:51:07 51°13.417 2°51.179 283.2 0.9 261 10.7
2009-08-04 06:51:13 51°13.417 2°51.176 282.7 0.9 262 10.7
2009-08-04 06:51:17 51°13.416 2°51.174 282.2 0.9 260 10.7
2009-08-04 06:51:22 51°13.416 2°51.173 281.6 0.9 262 10.7
2009-08-04 06:51:27 51°13.416 2°51.17 281 0.9 260 10.7
2009-08-04 06:51:33 51°13.416 2°51.168 280.3 0.9 262 10.7
2009-08-04 06:51:37 51°13.416 2°51.167 279.8 0.9 259 10.7
2009-08-04 06:51:42 51°13.415 2°51.165 279.1 0.9 262 10.7
2009-08-04 06:51:47 51°13.415 2°51.162 278.6 0.9 261 10.7
2009-08-04 06:51:53 51°13.415 2°51.16 278 0.9 262 10.7
2009-08-04 06:51:57 51°13.415 2°51.159 277.3 0.9 261 10.7
2009-08-04 06:52:02 51°13.414 2°51.157 277 0.9 263 10.7
2009-08-04 06:52:07 51°13.414 2°51.155 276.6 0.9 261 10.7
2009-08-04 06:52:12 51°13.414 2°51.153 276.4 0.9 263 10.7
2009-08-04 06:52:17 51°13.414 2°51.151 276 0.9 261 10.7
2009-08-04 06:52:22 51°13.414 2°51.149 275.8 0.9 263 10.7
2009-08-04 06:52:27 51°13.413 2°51.147 275.5 0.9 260 10.7
2009-08-04 06:52:32 51°13.413 2°51.145 275.2 0.9 262 10.7
2009-08-04 06:52:37 51°13.413 2°51.143 275 0.9 261 10.7
2009-08-04 06:52:42 51°13.413 2°51.141 274.7 0.9 262 10.7
2009-08-04 06:52:47 51°13.413 2°51.139 274.5 0.9 263 10.7
2009-08-04 06:52:53 51°13.413 2°51.137 274.4 0.9 264 10.7
2009-08-04 06:52:57 51°13.412 2°51.135 274.3 0.9 264 10.7
2009-08-04 06:53:02 51°13.412 2°51.134 274.3 0.9 265 10.7
2009-08-04 06:53:07 51°13.412 2°51.132 274.2 0.9 265 10.7
2009-08-04 06:53:13 51°13.412 2°51.129 274.2 0.9 266 10.7
2009-08-04 06:53:17 51°13.412 2°51.128 274.1 0.9 265 10.7
2009-08-04 06:53:22 51°13.412 2°51.126 274.1 0.9 266 10.7
2009-08-04 06:53:27 51°13.412 2°51.124 274.1 0.9 264 10.7
2009-08-04 06:53:33 51°13.412 2°51.122 274.1 0.9 266 10.8
2009-08-04 06:53:37 51°13.411 2°51.12 274.1 0.9 265 10.8
2009-08-04 06:53:42 51°13.411 2°51.118 274.1 0.9 265 10.8
2009-08-04 06:53:47 51°13.411 2°51.117 274.2 0.8 265 10.7
2009-08-04 06:53:53 51°13.411 2°51.114 274.3 0.9 266 10.8
2009-08-04 06:53:57 51°13.411 2°51.113 274.4 0.9 265 10.8
2009-08-04 06:54:02 51°13.411 2°51.111 274.4 0.9 266 10.8
2009-08-04 06:54:07 51°13.411 2°51.109 274.5 0.8 265 10.8
2009-08-04 06:54:12 51°13.411 2°51.107 274.8 0.8 265 10.8
2009-08-04 06:54:17 51°13.41 2°51.105 274.9 0.8 264 10.7
2009-08-04 06:54:22 51°13.41 2°51.104 275.1 0.8 266 10.7
2009-08-04 06:54:27 51°13.41 2°51.102 275.2 0.8 265 10.7
2009-08-04 06:54:32 51°13.41 2°51.1 275.3 0.8 265 10.7
2009-08-04 06:54:37 51°13.41 2°51.098 275.4 0.8 262 10.8
2009-08-04 06:54:42 51°13.41 2°51.096 275.6 0.8 266 10.8
2009-08-04 06:54:47 51°13.41 2°51.094 275.7 0.8 262 10.8
2009-08-04 06:54:52 51°13.41 2°51.093 275.7 0.8 264 10.8
2009-08-04 06:54:57 51°13.409 2°51.091 275.8 0.8 264 10.8
2009-08-04 06:55:02 51°13.409 2°51.089 275.9 0.8 262 10.8
2009-08-04 06:55:07 51°13.409 2°51.087 275.9 0.8 263 10.8
2009-08-04 06:55:13 51°13.409 2°51.085 276 0.8 266 10.7
2009-08-04 06:55:17 51°13.409 2°51.083 276.1 0.8 263 10.8
2009-08-04 06:55:22 51°13.409 2°51.081 276.3 0.8 265 10.8
2009-08-04 06:55:27 51°13.409 2°51.079 276.4 0.8 263 10.7
2009-08-04 06:55:33 51°13.409 2°51.077 276.5 0.8 265 10.7
2009-08-04 06:55:37 51°13.409 2°51.075 276.6 0.8 264 10.8
2009-08-04 06:55:42 51°13.409 2°51.074 276.7 0.9 266 10.8
2009-08-04 06:55:47 51°13.408 2°51.072 276.9 0.8 265 10.8
2009-08-04 06:55:53 51°13.408 2°51.069 277.1 0.8 267 10.8
2009-08-04 06:55:57 51°13.408 2°51.068 277.4 0.8 268 10.8
2009-08-04 06:56:02 51°13.408 2°51.066 277.5 0.8 268 10.8
2009-08-04 06:56:07 51°13.408 2°51.064 277.8 0.8 269 10.8
2009-08-04 06:56:13 51°13.408 2°51.062 278.1 0.8 269 10.8
2009-08-04 06:56:17 51°13.408 2°51.06 278.2 0.8 269 10.8
2009-08-04 06:56:22 51°13.408 2°51.059 278.5 0.8 270 10.8
2009-08-04 06:56:27 51°13.408 2°51.057 278.6 0.8 270 10.8
2009-08-04 06:56:32 51°13.408 2°51.055 278.7 0.9 270 10.8
2009-08-04 06:56:37 51°13.408 2°51.053 278.8 0.8 270 10.8
2009-08-04 06:56:42 51°13.408 2°51.051 278.9 0.8 270 10.8
2009-08-04 06:56:47 51°13.408 2°51.05 278.9 0.8 270 10.8
2009-08-04 06:56:52 51°13.408 2°51.048 279 0.8 268 10.8
2009-08-04 06:56:57 51°13.408 2°51.046 279.1 0.8 269 10.8
2009-08-04 06:57:02 51°13.408 2°51.044 279.1 0.8 269 10.8
2009-08-04 06:57:07 51°13.408 2°51.043 279.3 0.8 270 10.8
2009-08-04 06:57:12 51°13.408 2°51.041 279.3 0.8 268 10.8
2009-08-04 06:57:17 51°13.408 2°51.039 279.5 0.8 269 10.8
2009-08-04 06:57:22 51°13.408 2°51.037 279.6 0.8 268 10.8
2009-08-04 06:57:27 51°13.408 2°51.036 279.7 0.8 268 10.8
2009-08-04 06:57:33 51°13.408 2°51.033 279.8 0.8 269 10.8
2009-08-04 06:57:37 51°13.408 2°51.032 279.8 0.8 269 10.8
2009-08-04 06:57:42 51°13.408 2°51.03 279.8 0.8 267 10.8
2009-08-04 06:57:47 51°13.408 2°51.028 280 0.8 270 10.8
2009-08-04 06:57:53 51°13.407 2°51.026 280 0.8 269 10.8
2009-08-04 06:57:57 51°13.407 2°51.025 280 0.8 269 10.8
2009-08-04 06:58:02 51°13.407 2°51.023 280.2 0.8 269 10.9
2009-08-04 06:58:07 51°13.407 2°51.021 280.2 0.8 267 10.8
2009-08-04 06:58:13 51°13.407 2°51.019 280.4 0.7 271 10.8
2009-08-04 06:58:17 51°13.407 2°51.018 280.5 0.8 266 10.8
2009-08-04 06:58:22 51°13.407 2°51.016 280.7 0.7 270 10.8
2009-08-04 06:58:27 51°13.407 2°51.015 280.8 0.8 267 10.8
2009-08-04 06:58:33 51°13.407 2°51.013 280.9 0.7 269 10.8
2009-08-04 06:58:37 51°13.407 2°51.011 281 0.8 267 10.8
2009-08-04 06:58:42 51°13.407 2°51.01 281 0.7 267 10.8
2009-08-04 06:58:47 51°13.407 2°51.008 281 0.7 268 10.8
2009-08-04 06:58:52 51°13.407 2°51.006 281 0.9 265 10.9
2009-08-04 06:58:57 51°13.407 2°51.004 281.1 1.1 270 10.9
2009-08-04 06:59:02 51°13.407 2°51.001 280 1.3 267 10.8
2009-08-04 06:59:07 51°13.407 2°50.998 278.4 1.5 268 10.8
2009-08-04 06:59:12 51°13.407 2°50.994 275.2 1.7 264 10.8
2009-08-04 06:59:17 51°13.406 2°50.99 272 1.9 264 10.8
2009-08-04 06:59:22 51°13.406 2°50.986 268.4 2.1 261 10.8
2009-08-04 06:59:27 51°13.405 2°50.981 265.1 2.2 258 10.8
2009-08-04 06:59:32 51°13.404 2°50.976 261.1 2.3 255 10.8
2009-08-04 06:59:37 51°13.403 2°50.971 257 2.5 252 10.9
2009-08-04 06:59:42 51°13.402 2°50.966 252.3 2.5 248 10.9
2009-08-04 06:59:47 51°13.4 2°50.96 249.1 2.7 246 10.8
2009-08-04 06:59:53 51°13.398 2°50.954 245 2.8 244 10.8
2009-08-04 06:59:57 51°13.397 2°50.949 240.7 2.9 240 10.9
2009-08-04 07:00:02 51°13.395 2°50.944 236.5 3 236 10.9
2009-08-04 07:00:07 51°13.392 2°50.939 232 3 232 10.8
2009-08-04 07:00:13 51°13.389 2°50.932 227.2 3.2 229 10.8
2009-08-04 07:00:17 51°13.386 2°50.928 222.2 3.2 224 10.9
2009-08-04 07:00:22 51°13.383 2°50.924 216 3.3 220 10.9
2009-08-04 07:00:27 51°13.379 2°50.919 211.7 3.3 216 10.9
2009-08-04 07:00:33 51°13.374 2°50.915 206.4 3.4 211 10.9
2009-08-04 07:00:37 51°13.371 2°50.912 201 3.4 207 10.9
2009-08-04 07:00:42 51°13.366 2°50.909 194.4 3.4 202 10.9
2009-08-04 07:00:47 51°13.362 2°50.907 189.9 3.4 197 10.9
2009-08-04 07:00:52 51°13.357 2°50.905 184.4 3.4 192 10.9
2009-08-04 07:00:57 51°13.353 2°50.904 177.6 3.3 187 10.9
2009-08-04 07:01:03 51°13.347 2°50.904 170.7 3.3 181 10.9
2009-08-04 07:01:08 51°13.343 2°50.904 164.8 3.2 175 10.9
2009-08-04 07:01:14 51°13.338 2°50.905 158.9 3.1 170 10.8
2009-08-04 07:01:18 51°13.334 2°50.907 152.7 3 164 10.9
2009-08-04 07:01:23 51°13.33 2°50.909 147.7 3 158 10.9
2009-08-04 07:01:28 51°13.327 2°50.912 140.2 2.9 152 10.8
2009-08-04 07:01:33 51°13.324 2°50.916 135.2 2.8 145 10.8
2009-08-04 07:01:38 51°13.321 2°50.919 127.7 2.7 139 10.8
2009-08-04 07:01:43 51°13.318 2°50.924 121.1 2.8 133 10.8
2009-08-04 07:01:48 51°13.316 2°50.929 116.3 3 126 10.8
2009-08-04 07:01:54 51°13.312 2°50.936 112.2 3.3 124 10.7
2009-08-04 07:01:58 51°13.311 2°50.941 110.9 3.6 123 10.9
2009-08-04 07:02:04 51°13.307 2°50.949 111.7 3.9 125 10.8
2009-08-04 07:02:08 51°13.304 2°50.955 115.5 4 129 10.8
2009-08-04 07:02:14 51°13.299 2°50.963 119.9 4.1 138 10.7
2009-08-04 07:02:18 51°13.296 2°50.967 126.9 4 144 10.7
2009-08-04 07:02:24 51°13.29 2°50.972 134.8 3.9 152 10.7
2009-08-04 07:02:29 51°13.286 2°50.975 139.7 3.7 157 10.7
2009-08-04 07:02:34 51°13.281 2°50.978 145.2 3.6 162 10.7
2009-08-04 07:02:38 51°13.277 2°50.979 150.1 3.5 167 10.7
2009-08-04 07:02:43 51°13.272 2°50.98 154.6 3.4 171 10.7
2009-08-04 07:02:49 51°13.267 2°50.981 158.4 3.3 175 10.7
2009-08-04 07:02:54 51°13.262 2°50.981 162.2 3.2 179 10.6
2009-08-04 07:02:58 51°13.259 2°50.981 165.9 3.2 183 10.6
2009-08-04 07:03:03 51°13.254 2°50.98 169.4 3.1 186 10.6
2009-08-04 07:03:08 51°13.25 2°50.979 172.9 3 189 10.6
2009-08-04 07:03:14 51°13.245 2°50.977 176.6 3.1 193 10.6
2009-08-04 07:03:18 51°13.242 2°50.976 179.7 3.1 193 10.6
2009-08-04 07:03:23 51°13.238 2°50.974 183 3 202 10.6
2009-08-04 07:03:28 51°13.234 2°50.972 187 2.9 200 10.6
2009-08-04 07:03:33 51°13.23 2°50.969 190 2.8 206 10.5
2009-08-04 07:03:38 51°13.227 2°50.966 192.3 2.6 205 10.5
2009-08-04 07:03:43 51°13.224 2°50.964 193.7 2.4 211 10.5
2009-08-04 07:03:48 51°13.222 2°50.961 195.9 2.2 211 10.6
2009-08-04 07:03:53 51°13.219 2°50.959 198.7 1.9 217 10.6
2009-08-04 07:03:58 51°13.218 2°50.956 201.5 1.7 219 10.6
2009-08-04 07:04:04 51°13.216 2°50.954 204.4 1.5 225 10.5
2009-08-04 07:04:08 51°13.215 2°50.952 207.1 1.2 228 10.6
2009-08-04 07:04:14 51°13.214 2°50.949 209.8 1.1 234 10.5
2009-08-04 07:04:18 51°13.213 2°50.948 212.6 0.9 235 10.6
2009-08-04 07:04:24 51°13.213 2°50.946 215 0.9 243 10.5
2009-08-04 07:04:29 51°13.212 2°50.944 217.2 0.9 242 10.6
2009-08-04 07:04:34 51°13.211 2°50.943 219.2 0.9 247 10.5
2009-08-04 07:04:38 51°13.211 2°50.941 221 0.9 247 10.5
2009-08-04 07:04:44 51°13.21 2°50.939 222.8 0.9 248 10.6
2009-08-04 07:04:49 51°13.21 2°50.937 224.5 0.9 248 10.6
2009-08-04 07:04:54 51°13.209 2°50.935 226.6 0.9 250 -999
2009-08-04 07:04:58 51°13.209 2°50.934 228.4 0.9 252 4.9
2009-08-04 07:05:04 51°13.209 2°50.932 230.3 0.9 250 4.6
2009-08-04 07:05:09 51°13.208 2°50.93 232.1 0.9 254 -999
2009-08-04 07:05:14 51°13.208 2°50.928 233.8 0.9 252 4.6
2009-08-04 07:05:18 51°13.207 2°50.927 235.7 0.9 258 10.6
2009-08-04 07:05:23 51°13.207 2°50.925 237.3 0.9 253 10.6
2009-08-04 07:05:28 51°13.207 2°50.923 239.2 0.9 257 10.6
2009-08-04 07:05:34 51°13.206 2°50.921 241.5 0.9 257 10.6
2009-08-04 07:05:38 51°13.206 2°50.92 243.1 0.8 257 10.6
2009-08-04 07:05:43 51°13.205 2°50.918 244.9 0.8 256 10.6
2009-08-04 07:05:48 51°13.205 2°50.916 246.8 0.8 256 10.6
2009-08-04 07:05:53 51°13.205 2°50.914 248.4 0.8 256 10.6
2009-08-04 07:05:58 51°13.205 2°50.912 250.5 0.9 254 10.6
2009-08-04 07:06:03 51°13.205 2°50.91 251.8 0.9 254 10.7
2009-08-04 07:06:08 51°13.204 2°50.909 253.4 0.9 255 10.6
2009-08-04 07:06:14 51°13.204 2°50.906 254.8 0.9 254 10.6
2009-08-04 07:06:18 51°13.203 2°50.905 256.4 0.9 254 10.6
2009-08-04 07:06:24 51°13.203 2°50.903 257.8 0.9 256 10.6
2009-08-04 07:06:28 51°13.203 2°50.901 259.2 0.9 255 10.6
2009-08-04 07:06:34 51°13.202 2°50.899 260.6 0.9 256 10.7
2009-08-04 07:06:38 51°13.202 2°50.898 261.9 0.9 255 10.6
2009-08-04 07:06:44 51°13.202 2°50.895 262.9 0.9 257 10.6
2009-08-04 07:06:49 51°13.202 2°50.893 264 0.9 258 10.7
2009-08-04 07:06:54 51°13.201 2°50.891 265 0.9 256 10.6
2009-08-04 07:06:58 51°13.201 2°50.89 266 0.9 259 10.6
2009-08-04 07:07:03 51°13.201 2°50.888 267 0.9 258 10.7
2009-08-04 07:07:09 51°13.201 2°50.886 267.8 0.9 260 10.7
2009-08-04 07:07:14 51°13.201 2°50.883 268.6 0.9 260 10.6
2009-08-04 07:07:18 51°13.2 2°50.882 269.5 0.9 258 10.7
2009-08-04 07:07:23 51°13.2 2°50.88 270.4 0.9 261 10.7
2009-08-04 07:07:29 51°13.2 2°50.878 271.2 0.9 261 10.7
2009-08-04 07:07:34 51°13.2 2°50.876 272 0.9 262 10.6
2009-08-04 07:07:38 51°13.199 2°50.874 272.8 0.9 261 10.7
2009-08-04 07:07:43 51°13.199 2°50.872 273.5 0.9 261 10.7
2009-08-04 07:07:48 51°13.199 2°50.87 274.4 0.9 262 10.7
2009-08-04 07:07:54 51°13.199 2°50.868 275.1 0.9 262 10.6
2009-08-04 07:07:58 51°13.199 2°50.867 275.7 0.9 262 10.7
2009-08-04 07:08:03 51°13.199 2°50.865 276.4 0.9 260 10.7
2009-08-04 07:08:08 51°13.198 2°50.863 277.1 0.9 261 10.7
2009-08-04 07:08:13 51°13.198 2°50.861 277.7 0.9 261 10.7
2009-08-04 07:08:18 51°13.198 2°50.859 278.3 0.9 262 10.7
2009-08-04 07:08:23 51°13.198 2°50.857 278.8 0.9 261 10.7
2009-08-04 07:08:28 51°13.197 2°50.855 279.5 0.9 261 10.7
2009-08-04 07:08:34 51°13.197 2°50.853 280 0.9 260 10.7
2009-08-04 07:08:38 51°13.197 2°50.851 280.6 0.9 260 10.7
2009-08-04 07:08:44 51°13.197 2°50.849 281.2 0.9 262 10.7
2009-08-04 07:08:48 51°13.197 2°50.847 281.8 0.9 260 10.7
2009-08-04 07:08:54 51°13.196 2°50.845 282.4 0.9 260 10.7
2009-08-04 07:08:58 51°13.196 2°50.844 283.1 0.9 260 10.8
2009-08-04 07:09:03 51°13.196 2°50.842 283.6 0.9 261 10.7
2009-08-04 07:09:09 51°13.196 2°50.839 284 0.9 260 10.7
2009-08-04 07:09:14 51°13.196 2°50.838 284.6 0.9 259 10.7
2009-08-04 07:09:18 51°13.195 2°50.836 285.1 0.9 261 10.8
2009-08-04 07:09:23 51°13.195 2°50.834 285.5 0.9 260 10.8
2009-08-04 07:09:29 51°13.195 2°50.832 286.1 0.9 261 10.7
2009-08-04 07:09:34 51°13.195 2°50.83 286.6 0.9 259 10.8
2009-08-04 07:09:38 51°13.194 2°50.828 287.1 0.9 260 10.8
2009-08-04 07:09:43 51°13.194 2°50.826 287.5 0.9 260 10.8
2009-08-04 07:09:48 51°13.194 2°50.824 288 0.8 262 10.8
2009-08-04 07:09:54 51°13.194 2°50.822 288.4 0.9 259 10.7
2009-08-04 07:09:58 51°13.194 2°50.821 288.8 0.8 263 10.7
2009-08-04 07:10:03 51°13.194 2°50.819 289 0.9 259 10.7
2009-08-04 07:10:08 51°13.193 2°50.817 289.6 0.8 262 10.7
2009-08-04 07:10:13 51°13.193 2°50.816 289.8 0.9 259 10.7
2009-08-04 07:10:18 51°13.193 2°50.814 290.1 0.9 265 10.7
2009-08-04 07:10:23 51°13.193 2°50.812 290.4 1 264 10.8
2009-08-04 07:10:28 51°13.193 2°50.809 290.4 1.2 270 10.8
2009-08-04 07:10:33 51°13.193 2°50.806 289.7 1.4 270 10.8
2009-08-04 07:10:38 51°13.193 2°50.803 288.2 1.6 271 10.8
2009-08-04 07:10:43 51°13.193 2°50.799 286.4 1.8 270 10.8
2009-08-04 07:10:48 51°13.193 2°50.795 284.3 2 271 10.8
2009-08-04 07:10:54 51°13.193 2°50.789 281.9 2.3 268 10.8
2009-08-04 07:10:58 51°13.193 2°50.784 279.2 2.4 268 10.8
2009-08-04 07:11:04 51°13.192 2°50.777 276.3 2.7 266 10.8
2009-08-04 07:11:08 51°13.192 2°50.772 273.2 2.8 264 10.8
2009-08-04 07:11:14 51°13.191 2°50.764 270.1 3 262 10.8
2009-08-04 07:11:18 51°13.191 2°50.759 266.9 3.3 260 10.9
2009-08-04 07:11:24 51°13.19 2°50.749 263.5 3.7 257 10.9
2009-08-04 07:11:29 51°13.188 2°50.741 260.3 4.1 256 10.9
2009-08-04 07:11:34 51°13.186 2°50.731 258.1 4.5 255 10.9
2009-08-04 07:11:38 51°13.185 2°50.723 256.3 5 253 10.9
2009-08-04 07:11:43 51°13.182 2°50.711 254.6 5.4 252 10.9
2009-08-04 07:11:49 51°13.179 2°50.697 253.2 5.8 251 10.9
2009-08-04 07:11:54 51°13.176 2°50.684 252 6.2 250 10.9
2009-08-04 07:11:58 51°13.174 2°50.673 251.1 6.7 249 10.9
2009-08-04 07:12:03 51°13.17 2°50.659 250.2 7.1 248 10.8
2009-08-04 07:12:08 51°13.166 2°50.643 249.7 7.5 247 10.9
2009-08-04 07:12:14 51°13.161 2°50.625 249 7.8 247 10.9
2009-08-04 07:12:18 51°13.157 2°50.612 247.1 8.1 244 10.8
2009-08-04 07:12:23 51°13.152 2°50.596 245 8.3 243 10.9
2009-08-04 07:12:28 51°13.146 2°50.579 243.5 8.7 242 10.9
2009-08-04 07:12:33 51°13.14 2°50.562 242 9.1 241 10.9
2009-08-04 07:12:38 51°13.134 2°50.544 240.8 9.5 239 10.9
2009-08-04 07:12:43 51°13.127 2°50.525 239.9 9.9 239 10.9
2009-08-04 07:12:48 51°13.119 2°50.505 239 10.3 239 10.8
2009-08-04 07:12:53 51°13.112 2°50.486 238.5 10.7 238 10.8
2009-08-04 07:12:58 51°13.103 2°50.465 237.7 11 237 10.8
2009-08-04 07:13:04 51°13.093 2°50.44 237.3 11.2 237 10.8
2009-08-04 07:13:08 51°13.086 2°50.423 236.9 11.4 237 10.8
2009-08-04 07:13:14 51°13.076 2°50.398 236.5 11.5 236 10.8
2009-08-04 07:13:18 51°13.069 2°50.381 236 11.6 236 10.8
2009-08-04 07:13:24 51°13.058 2°50.355 236 11.7 236 10.9
2009-08-04 07:13:29 51°13.049 2°50.333 236.6 11.8 237 10.9
2009-08-04 07:13:34 51°13.04 2°50.311 237.1 11.9 237 10.8
2009-08-04 07:13:38 51°13.032 2°50.294 237.4 11.9 238 10.9
2009-08-04 07:13:43 51°13.023 2°50.272 237.8 11.9 238 10.9
2009-08-04 07:13:49 51°13.013 2°50.245 238.2 12 238 10.9
2009-08-04 07:13:54 51°13.004 2°50.222 238.5 12 239 10.9
2009-08-04 07:13:58 51°12.997 2°50.204 238.8 12 238 10.9
2009-08-04 07:14:03 51°12.988 2°50.182 238.5 12 238 10.9
2009-08-04 07:14:09 51°12.978 2°50.155 237.9 12 237 11
2009-08-04 07:14:14 51°12.969 2°50.133 237.4 12 237 10.9
2009-08-04 07:14:18 51°12.962 2°50.114 237.6 12 239 10.9
2009-08-04 07:14:23 51°12.953 2°50.092 238.3 12 238 10.9
2009-08-04 07:14:28 51°12.944 2°50.069 238.5 12 239 10.9
2009-08-04 07:14:34 51°12.933 2°50.042 238.8 12 238 10.9
2009-08-04 07:14:38 51°12.926 2°50.024 238.8 12 239 10.9
2009-08-04 07:14:43 51°12.918 2°50.001 239.1 12 239 11
2009-08-04 07:14:48 51°12.909 2°49.979 239.6 12 239 11
2009-08-04 07:14:54 51°12.899 2°49.951 239.6 12 240 10.9
2009-08-04 07:14:58 51°12.892 2°49.933 239.8 12 240 11
2009-08-04 07:15:03 51°12.884 2°49.91 240.1 12 240 11
2009-08-04 07:15:08 51°12.876 2°49.887 240.2 12 240 11
2009-08-04 07:15:14 51°12.865 2°49.859 240.2 12 240 11
2009-08-04 07:15:18 51°12.859 2°49.841 239.9 12 240 11
2009-08-04 07:15:24 51°12.849 2°49.813 239.8 12 239 11.1
2009-08-04 07:15:28 51°12.842 2°49.795 239.8 12 239 11.1
2009-08-04 07:15:34 51°12.832 2°49.768 239.8 12 239 11
2009-08-04 07:15:38 51°12.825 2°49.75 239.8 12 239 11.1
2009-08-04 07:15:44 51°12.814 2°49.723 239.8 12 239 11.1
2009-08-04 07:15:49 51°12.806 2°49.7 239.7 12 239 11.1
2009-08-04 07:15:54 51°12.797 2°49.677 239.8 12 240 11
2009-08-04 07:15:58 51°12.791 2°49.659 240 12 240 11.1
2009-08-04 07:16:03 51°12.783 2°49.635 240.3 12 240 11.2
2009-08-04 07:16:09 51°12.773 2°49.608 240.3 12 240 11
2009-08-04 07:16:14 51°12.764 2°49.585 240.1 12 240 11.1
2009-08-04 07:16:18 51°12.757 2°49.566 240.1 12.1 240 11.1
2009-08-04 07:16:23 51°12.749 2°49.543 240.3 12.1 240 11
2009-08-04 07:16:28 51°12.741 2°49.52 240.3 12.1 239 11
2009-08-04 07:16:34 51°12.73 2°49.493 239.8 12.1 240 11.2
2009-08-04 07:16:38 51°12.723 2°49.474 239.8 12.1 239 11.1
2009-08-04 07:16:43 51°12.715 2°49.451 239.8 12.1 240 11.1
2009-08-04 07:16:48 51°12.707 2°49.427 239.9 12.1 240 11.2
2009-08-04 07:16:54 51°12.697 2°49.4 240.1 12.1 240 11.1
2009-08-04 07:16:58 51°12.69 2°49.382 239.8 12.1 239 11.3
2009-08-04 07:17:03 51°12.681 2°49.359 239.6 12.1 240 11.2
2009-08-04 07:17:08 51°12.673 2°49.335 239.7 12.1 240 11.2
2009-08-04 07:17:13 51°12.665 2°49.312 240.2 12.1 240 11.2
2009-08-04 07:17:18 51°12.656 2°49.29 240.3 12 239 11.2
2009-08-04 07:17:23 51°12.647 2°49.267 239.4 12 238 11.3
2009-08-04 07:17:28 51°12.639 2°49.244 238.9 12 239 11.3
2009-08-04 07:17:34 51°12.628 2°49.217 238.9 12 238 11.2
2009-08-04 07:17:38 51°12.621 2°49.199 238.8 12 239 11.3
2009-08-04 07:17:44 51°12.611 2°49.172 239.2 12 240 11.3
2009-08-04 07:17:48 51°12.604 2°49.153 239.6 12 239 11.3
2009-08-04 07:17:54 51°12.594 2°49.126 239.8 12 240 11.2
2009-08-04 07:17:58 51°12.587 2°49.107 240 12 240 11.3
2009-08-04 07:18:04 51°12.577 2°49.08 240.4 12 240 11.3
2009-08-04 07:18:09 51°12.569 2°49.056 240.6 12 240 11.2
2009-08-04 07:18:14 51°12.561 2°49.033 240.7 12 240 11.2
2009-08-04 07:18:18 51°12.554 2°49.014 240.6 12 240 11.3
2009-08-04 07:18:23 51°12.546 2°48.99 240.5 12 240 11.3
2009-08-04 07:18:29 51°12.537 2°48.963 240.4 12 240 11.4
2009-08-04 07:18:34 51°12.528 2°48.939 240.5 12 240 11.4
2009-08-04 07:18:38 51°12.522 2°48.921 240.6 12 240 11.2
2009-08-04 07:18:43 51°12.513 2°48.898 240.3 12.1 240 11.4
2009-08-04 07:18:48 51°12.505 2°48.875 240.3 12 240 11.2
2009-08-04 07:18:54 51°12.494 2°48.848 240.5 12.1 240 11.4
2009-08-04 07:18:58 51°12.487 2°48.83 240.8 12 240 11.3
2009-08-04 07:19:03 51°12.479 2°48.807 240.7 12 241 11.3
2009-08-04 07:19:08 51°12.471 2°48.783 240.8 12 240 11.3
2009-08-04 07:19:14 51°12.461 2°48.756 240.6 12 240 11.2
2009-08-04 07:19:18 51°12.454 2°48.738 240.2 12 240 11.3
2009-08-04 07:19:23 51°12.445 2°48.714 240.4 12 240 11.4
2009-08-04 07:19:28 51°12.437 2°48.691 240.6 12 240 11.2
2009-08-04 07:19:33 51°12.429 2°48.668 240.7 12 240 11.3
2009-08-04 07:19:38 51°12.42 2°48.645 240.3 12 240 11.3
2009-08-04 07:19:43 51°12.412 2°48.622 240.3 12 240 11.3
2009-08-04 07:19:48 51°12.404 2°48.599 240.4 12 240 11.3
2009-08-04 07:19:54 51°12.393 2°48.572 239.9 12 239 11.4
2009-08-04 07:19:58 51°12.386 2°48.554 239 12 238 11.4
2009-08-04 07:20:04 51°12.376 2°48.527 238.6 12 238 11.4
2009-08-04 07:20:08 51°12.369 2°48.509 238.3 12 238 11.4
2009-08-04 07:20:14 51°12.358 2°48.482 238.3 12 238 11.3
2009-08-04 07:20:18 51°12.351 2°48.464 238.2 12 238 11.4
2009-08-04 07:20:23 51°12.342 2°48.441 238.2 12 238 11.4
2009-08-04 07:20:29 51°12.332 2°48.414 238.4 12 238 11.4
2009-08-04 07:20:34 51°12.323 2°48.392 238.4 12 239 11.3
2009-08-04 07:20:38 51°12.316 2°48.374 238.4 12 238 11.4
2009-08-04 07:20:43 51°12.307 2°48.352 238.5 12 238 11.4
2009-08-04 07:20:49 51°12.296 2°48.325 238.5 12 238 11.3
2009-08-04 07:20:54 51°12.288 2°48.302 238.7 12 238 11.4
2009-08-04 07:20:58 51°12.281 2°48.284 238.7 12 238 11.4
2009-08-04 07:21:03 51°12.272 2°48.261 238.6 12 239 11.2
2009-08-04 07:21:08 51°12.264 2°48.238 238.9 12 239 11.4
2009-08-04 07:21:14 51°12.253 2°48.211 238.9 12 239 11.4
2009-08-04 07:21:18 51°12.246 2°48.193 238.9 12 238 11.4
2009-08-04 07:21:23 51°12.237 2°48.17 238.8 12 239 11.4
2009-08-04 07:21:28 51°12.229 2°48.147 239.4 12 239 11.3
2009-08-04 07:21:34 51°12.219 2°48.12 240.1 12 240 11.4
2009-08-04 07:21:38 51°12.213 2°48.101 240.6 12 240 11.3
2009-08-04 07:21:43 51°12.204 2°48.078 241 12 241 11.4
2009-08-04 07:21:48 51°12.196 2°48.055 241.1 12 240 11.3
2009-08-04 07:21:53 51°12.188 2°48.032 240.4 12 240 11.3
2009-08-04 07:21:58 51°12.179 2°48.009 240.1 12 239 11.4
2009-08-04 07:22:04 51°12.169 2°47.982 239.7 12.1 239 11.3
2009-08-04 07:22:08 51°12.162 2°47.963 239.6 12 239 11.4
2009-08-04 07:22:14 51°12.152 2°47.936 239.6 12 239 11.4
2009-08-04 07:22:18 51°12.145 2°47.918 239.6 12 239 11.4
2009-08-04 07:22:24 51°12.135 2°47.89 239.6 12.1 240 11.3
2009-08-04 07:22:29 51°12.126 2°47.867 239.7 12.1 240 11.4
2009-08-04 07:22:34 51°12.118 2°47.844 240.5 12.1 240 11.3
2009-08-04 07:22:38 51°12.112 2°47.825 240.9 12.1 241 11.2
2009-08-04 07:22:44 51°12.102 2°47.797 241.2 12.1 241 11.4
2009-08-04 07:22:49 51°12.094 2°47.773 241.4 12.1 241 11.3
2009-08-04 07:22:54 51°12.086 2°47.75 241.7 12.1 242 11.3
2009-08-04 07:22:58 51°12.08 2°47.731 242.2 12.1 241 11.2
2009-08-04 07:23:03 51°12.072 2°47.708 242.1 12.1 241 11.3
2009-08-04 07:23:09 51°12.062 2°47.68 241.3 12.1 241 11.3
2009-08-04 07:23:14 51°12.054 2°47.656 242.1 12.1 243 11.3
2009-08-04 07:23:18 51°12.048 2°47.637 243 12.1 242 11.2
2009-08-04 07:23:23 51°12.04 2°47.614 243.2 12 243 11.3
2009-08-04 07:23:28 51°12.033 2°47.59 243.9 12 244 11.3
2009-08-04 07:23:34 51°12.024 2°47.561 244.3 12.1 244 11.3
2009-08-04 07:23:38 51°12.018 2°47.542 244.5 12.1 244 11.2
2009-08-04 07:23:43 51°12.011 2°47.518 244.6 12.1 245 11.3
2009-08-04 07:23:48 51°12.004 2°47.494 244.8 12 245 11.3
2009-08-04 07:23:54 51°11.997 2°47.464 246.9 12 249 11.3
2009-08-04 07:23:58 51°11.992 2°47.445 248.8 12 248 11.3
2009-08-04 07:24:03 51°11.986 2°47.42 249.8 12 250 11.4
2009-08-04 07:24:08 51°11.98 2°47.395 250.9 12 250 11.3
2009-08-04 07:24:14 51°11.974 2°47.364 251.9 12 251 11.4
2009-08-04 07:24:18 51°11.97 2°47.344 252.7 12 252 11.4
2009-08-04 07:24:24 51°11.964 2°47.314 253.6 12 253 11.4
2009-08-04 07:24:28 51°11.96 2°47.294 253.9 12 253 11.4
2009-08-04 07:24:34 51°11.954 2°47.263 254.6 12 254 11.4
2009-08-04 07:24:38 51°11.95 2°47.243 254.9 12 253 11.4
2009-08-04 07:24:44 51°11.945 2°47.212 255.1 12 254 11.4
2009-08-04 07:24:49 51°11.94 2°47.187 255.2 12 253 11.5
2009-08-04 07:24:54 51°11.935 2°47.161 255.2 12 254 11.5
2009-08-04 07:24:58 51°11.931 2°47.141 255.4 12 254 11.5
2009-08-04 07:25:04 51°11.926 2°47.11 255.6 12 254 11.6
2009-08-04 07:25:09 51°11.921 2°47.085 255.6 12 254 11.6
2009-08-04 07:25:14 51°11.917 2°47.059 255.7 12 254 11.6
2009-08-04 07:25:18 51°11.913 2°47.039 255.7 12.1 254 11.8
2009-08-04 07:25:23 51°11.909 2°47.013 255.8 12.1 254 11.7
2009-08-04 07:25:29 51°11.903 2°46.982 255.8 12.1 254 11.7
2009-08-04 07:25:34 51°11.899 2°46.956 256.1 12.1 255 11.8
2009-08-04 07:25:38 51°11.895 2°46.936 256.4 12.1 255 11.9
2009-08-04 07:25:43 51°11.891 2°46.91 256.9 12.1 255 11.8
2009-08-04 07:25:48 51°11.886 2°46.884 256.8 12.1 254 11.8
2009-08-04 07:25:54 51°11.88 2°46.853 256.2 12.1 254 11.9
2009-08-04 07:25:58 51°11.877 2°46.833 255.5 12.1 253 11.9
2009-08-04 07:26:03 51°11.872 2°46.807 255.2 12.1 253 11.9
2009-08-04 07:26:08 51°11.867 2°46.782 254.8 12.2 252 12
2009-08-04 07:26:13 51°11.862 2°46.756 254.4 12.2 253 12
2009-08-04 07:26:18 51°11.856 2°46.73 254.1 12.2 252 12
2009-08-04 07:26:23 51°11.851 2°46.704 254.1 12.2 252 12
2009-08-04 07:26:28 51°11.846 2°46.679 254.1 12.2 252 12.1
2009-08-04 07:26:34 51°11.84 2°46.648 253.8 12.2 252 12.1
2009-08-04 07:26:38 51°11.835 2°46.628 253.8 12.2 252 12.2
2009-08-04 07:26:44 51°11.829 2°46.597 253.7 12.2 252 12.1
2009-08-04 07:26:48 51°11.825 2°46.576 253.9 12.2 252 12.2
2009-08-04 07:26:54 51°11.819 2°46.545 254 12.2 252 12.2
2009-08-04 07:26:58 51°11.815 2°46.525 253.6 12.2 252 12.2
2009-08-04 07:27:04 51°11.809 2°46.494 253.6 12.2 252 12.2
2009-08-04 07:27:09 51°11.803 2°46.469 253.6 12.2 252 12.2
2009-08-04 07:27:14 51°11.798 2°46.443 253.4 12.2 252 12.2
2009-08-04 07:27:18 51°11.794 2°46.423 253.3 12.2 252 12.3
2009-08-04 07:27:23 51°11.789 2°46.397 253.2 12.2 252 12.2
2009-08-04 07:27:29 51°11.782 2°46.367 253 12.2 251 12.3
2009-08-04 07:27:34 51°11.777 2°46.341 252.9 12.2 252 12.3
2009-08-04 07:27:38 51°11.773 2°46.321 253 12.2 251 12.3
2009-08-04 07:27:43 51°11.767 2°46.295 252.7 12.2 251 12.3
2009-08-04 07:27:49 51°11.761 2°46.265 252.7 12.2 252 12.3
2009-08-04 07:27:54 51°11.755 2°46.239 252.9 12.2 252 12.3
2009-08-04 07:27:58 51°11.751 2°46.219 253.1 12.2 252 12.3
2009-08-04 07:28:03 51°11.746 2°46.193 253.1 12.2 251 12.2
2009-08-04 07:28:08 51°11.74 2°46.168 252.7 12.2 252 12.3
2009-08-04 07:28:13 51°11.735 2°46.143 252.7 12.2 251 12.3
2009-08-04 07:28:18 51°11.729 2°46.117 252.7 12.2 251 12.2
2009-08-04 07:28:23 51°11.724 2°46.092 252.7 12.2 251 12.2
2009-08-04 07:28:28 51°11.719 2°46.066 252.7 12.2 251 12.3
2009-08-04 07:28:33 51°11.713 2°46.041 252.7 12.2 252 12.2
2009-08-04 07:28:38 51°11.708 2°46.015 252.8 12.2 251 12.3
2009-08-04 07:28:44 51°11.701 2°45.985 252.4 12.2 251 12.3
2009-08-04 07:28:48 51°11.697 2°45.965 252 12.2 251 12.3
2009-08-04 07:28:54 51°11.69 2°45.934 252.2 12.2 252 12.3
2009-08-04 07:28:58 51°11.686 2°45.914 252.7 12.2 251 12.3
2009-08-04 07:29:04 51°11.679 2°45.883 252.7 12.2 251 12.3
2009-08-04 07:29:08 51°11.675 2°45.863 252.8 12.2 251 12.3
2009-08-04 07:29:14 51°11.669 2°45.832 252.7 12.2 251 12.3
2009-08-04 07:29:18 51°11.664 2°45.812 252.5 12.2 251 12.3
2009-08-04 07:29:24 51°11.658 2°45.781 252.5 12.2 251 12.3
2009-08-04 07:29:29 51°11.652 2°45.756 252.5 12.2 252 12.3
2009-08-04 07:29:34 51°11.647 2°45.731 252.6 12.2 251 12.3
2009-08-04 07:29:38 51°11.643 2°45.71 252.7 12.2 251 12.3
2009-08-04 07:29:43 51°11.637 2°45.685 252.7 12.2 251 12.3
2009-08-04 07:29:49 51°11.631 2°45.654 252.5 12.2 252 12.3
2009-08-04 07:29:54 51°11.625 2°45.629 252.5 12.2 251 12.3
2009-08-04 07:29:58 51°11.621 2°45.608 252.5 12.2 251 12.3
2009-08-04 07:30:03 51°11.616 2°45.583 252.5 12.2 251 12.3
2009-08-04 07:30:08 51°11.61 2°45.558 252.5 12.2 251 12.3
2009-08-04 07:30:14 51°11.604 2°45.527 252.4 12.2 251 12.3
2009-08-04 07:30:18 51°11.599 2°45.507 252.2 12.2 251 12.3
2009-08-04 07:30:23 51°11.594 2°45.482 252.4 12.2 251 12.3
2009-08-04 07:30:28 51°11.588 2°45.456 252.7 12.2 251 12.4
2009-08-04 07:30:34 51°11.581 2°45.426 252.7 12.2 251 12.3
2009-08-04 07:30:38 51°11.577 2°45.406 252.3 12.2 251 12.3
2009-08-04 07:30:43 51°11.571 2°45.381 252.3 12.2 251 12.3
2009-08-04 07:30:48 51°11.566 2°45.355 252.4 12.2 251 12.3
2009-08-04 07:30:53 51°11.56 2°45.33 252.4 12.2 251 12.4
2009-08-04 07:30:58 51°11.555 2°45.304 252.4 12.2 251 12.3
2009-08-04 07:31:04 51°11.549 2°45.274 252.4 12.2 251 12.3
2009-08-04 07:31:08 51°11.544 2°45.253 252.4 12.1 251 12.3
2009-08-04 07:31:14 51°11.538 2°45.222 252.4 12.2 251 12.3
2009-08-04 07:31:18 51°11.534 2°45.202 252.4 12.2 252 12.3
2009-08-04 07:31:24 51°11.527 2°45.171 252.6 12.1 252 12.3
2009-08-04 07:31:29 51°11.522 2°45.146 252.7 12.1 252 12.3
2009-08-04 07:31:34 51°11.517 2°45.12 253 12.1 252 12.3
2009-08-04 07:31:38 51°11.513 2°45.1 253.1 12.1 252 12.3
2009-08-04 07:31:44 51°11.506 2°45.07 253.1 12.1 252 12.3
2009-08-04 07:31:49 51°11.501 2°45.044 252.6 12.1 251 12.3
2009-08-04 07:31:54 51°11.496 2°45.019 252.4 12.1 252 12.3
2009-08-04 07:31:58 51°11.491 2°44.998 252.7 12.1 252 12.2
2009-08-04 07:32:03 51°11.486 2°44.973 252.7 12.1 251 12.2
2009-08-04 07:32:09 51°11.48 2°44.942 252.4 12.1 251 12.3
2009-08-04 07:32:14 51°11.475 2°44.917 252.7 12.1 252 12.3
2009-08-04 07:32:18 51°11.47 2°44.897 252.6 12.2 251 12.3
2009-08-04 07:32:23 51°11.465 2°44.871 252.4 12.1 251 12.2
2009-08-04 07:32:29 51°11.459 2°44.841 252.6 12.2 252 12.3
2009-08-04 07:32:34 51°11.453 2°44.815 252.7 12.1 252 12.2
2009-08-04 07:32:38 51°11.449 2°44.795 252.7 12.2 251 12.3
2009-08-04 07:32:43 51°11.444 2°44.769 252.4 12.2 251 12.3
2009-08-04 07:32:48 51°11.438 2°44.744 252.6 12.1 251 12.3
2009-08-04 07:32:54 51°11.432 2°44.714 252.6 12.1 251 12.2
2009-08-04 07:32:58 51°11.427 2°44.694 251.9 12.1 250 12.2
2009-08-04 07:33:03 51°11.421 2°44.669 251.3 12.1 250 12.2
2009-08-04 07:33:08 51°11.416 2°44.643 251.2 12.1 251 12.3
2009-08-04 07:33:14 51°11.409 2°44.613 252 12.1 252 12.3
2009-08-04 07:33:18 51°11.405 2°44.592 252.3 12.1 251 12.3
2009-08-04 07:33:24 51°11.399 2°44.562 252.4 12.1 252 12.3
2009-08-04 07:33:28 51°11.394 2°44.542 252.6 12.1 251 12.2
2009-08-04 07:33:34 51°11.388 2°44.511 252.6 12.1 252 12.3
2009-08-04 07:33:38 51°11.384 2°44.491 252.7 12.1 251 12.3
2009-08-04 07:33:44 51°11.377 2°44.46 252.6 12.1 251 12.3
2009-08-04 07:33:49 51°11.372 2°44.435 251.8 12.1 250 12.3
2009-08-04 07:33:54 51°11.366 2°44.41 251.3 12.1 251 12.3
2009-08-04 07:33:58 51°11.362 2°44.39 251.7 12.1 251 12.3
2009-08-04 07:34:03 51°11.356 2°44.365 252 12.1 251 12.3
2009-08-04 07:34:09 51°11.35 2°44.334 252.3 12.1 252 12.3
2009-08-04 07:34:14 51°11.345 2°44.309 252.4 12.1 252 12.3
2009-08-04 07:34:18 51°11.341 2°44.289 253.4 12.1 253 12.2
2009-08-04 07:34:23 51°11.336 2°44.263 254.2 12.1 253 12.2
2009-08-04 07:34:29 51°11.33 2°44.232 254.6 12.1 254 12.2
2009-08-04 07:34:34 51°11.326 2°44.207 254.9 12.1 253 12.2
2009-08-04 07:34:38 51°11.322 2°44.186 254.8 12.1 253 12.3
2009-08-04 07:34:43 51°11.317 2°44.161 254.1 12.1 253 12.2
2009-08-04 07:34:48 51°11.312 2°44.135 253.9 12.1 253 12.2
2009-08-04 07:34:54 51°11.306 2°44.105 254.6 12.1 254 12.3
2009-08-04 07:34:58 51°11.303 2°44.084 255.3 12.1 254 12.2
2009-08-04 07:35:03 51°11.298 2°44.058 255.6 12.1 255 12.2
2009-08-04 07:35:08 51°11.294 2°44.033 256.6 12.1 256 12.3
2009-08-04 07:35:14 51°11.289 2°44.002 257 12.1 255 12.3
2009-08-04 07:35:18 51°11.286 2°43.981 257.1 12.1 256 12.3
2009-08-04 07:35:23 51°11.282 2°43.955 257.5 12.1 256 12.3
2009-08-04 07:35:28 51°11.278 2°43.929 257.7 12 256 12.2
2009-08-04 07:35:34 51°11.273 2°43.898 258.1 12.1 257 12.2
2009-08-04 07:35:38 51°11.27 2°43.877 258.3 12.1 257 12.2
2009-08-04 07:35:44 51°11.266 2°43.846 258.8 12.1 258 12.2
2009-08-04 07:35:48 51°11.263 2°43.825 259.5 12.1 258 12.3
2009-08-04 07:35:54 51°11.26 2°43.794 260.1 12.1 259 12.3
2009-08-04 07:35:58 51°11.257 2°43.773 260.5 12.1 259 12.3
2009-08-04 07:36:04 51°11.253 2°43.741 260.8 12.1 260 12.3
2009-08-04 07:36:09 51°11.25 2°43.715 261.2 12 259 12.3
2009-08-04 07:36:14 51°11.247 2°43.689 261.2 12 259 12.3
2009-08-04 07:36:18 51°11.244 2°43.668 260.8 12 259 12.3
2009-08-04 07:36:24 51°11.241 2°43.637 260.7 12 259 12.3
2009-08-04 07:36:29 51°11.237 2°43.611 260.7 12 259 12.2
2009-08-04 07:36:34 51°11.234 2°43.585 260.7 12 259 12.3
2009-08-04 07:36:38 51°11.232 2°43.564 260.7 12 259 12.3
2009-08-04 07:36:43 51°11.229 2°43.538 260.9 12 260 12.3
2009-08-04 07:36:48 51°11.226 2°43.512 261.2 12 259 12.2
2009-08-04 07:36:54 51°11.221 2°43.481 260.6 12 258 12.3
2009-08-04 07:36:58 51°11.219 2°43.461 260.1 12 259 12.3
2009-08-04 07:37:03 51°11.216 2°43.434 260.5 12 259 12.3
2009-08-04 07:37:08 51°11.213 2°43.409 260.8 12 260 12.3
2009-08-04 07:37:14 51°11.209 2°43.377 261.1 12 259 12.3
2009-08-04 07:37:18 51°11.207 2°43.357 262.6 11.9 263 12.3
2009-08-04 07:37:23 51°11.205 2°43.331 263.6 11.9 261 12.3
2009-08-04 07:37:28 51°11.202 2°43.305 263.9 11.9 263 12.3
2009-08-04 07:37:33 51°11.2 2°43.278 264.3 11.9 263 12.4
2009-08-04 07:37:38 51°11.199 2°43.252 264.9 11.9 264 12.3
2009-08-04 07:37:43 51°11.197 2°43.226 265.5 11.9 264 12.3
2009-08-04 07:37:48 51°11.195 2°43.2 266.1 11.9 265 12.3
2009-08-04 07:37:54 51°11.193 2°43.169 266.7 11.9 265 12.4
2009-08-04 07:37:58 51°11.192 2°43.148 267.1 11.9 265 12.3
2009-08-04 07:38:04 51°11.19 2°43.116 267.2 11.9 265 12.3
2009-08-04 07:38:08 51°11.189 2°43.095 267.4 11.9 265 12.3
2009-08-04 07:38:14 51°11.187 2°43.064 267.6 11.9 265 12.3
2009-08-04 07:38:18 51°11.186 2°43.043 267.3 11.9 265 12.3
2009-08-04 07:38:24 51°11.184 2°43.012 267.2 11.9 265 12.3
2009-08-04 07:38:29 51°11.183 2°42.986 267.2 11.9 265 12.3
2009-08-04 07:38:34 51°11.182 2°42.96 267.2 11.8 265 12.3
2009-08-04 07:38:38 51°11.18 2°42.939 267.1 11.6 265 12.2
2009-08-04 07:38:43 51°11.179 2°42.914 267 11.5 265 12.3
2009-08-04 07:38:49 51°11.177 2°42.884 267.1 11.4 265 12.2
2009-08-04 07:38:54 51°11.175 2°42.859 266.9 11.3 264 12.2
2009-08-04 07:38:58 51°11.174 2°42.839 266.2 11.3 264 12.2
2009-08-04 07:39:03 51°11.172 2°42.815 265.5 11.2 263 12.2
2009-08-04 07:39:08 51°11.17 2°42.79 265.2 11.1 264 12.2
2009-08-04 07:39:14 51°11.168 2°42.761 265.5 11.1 263 12.2
2009-08-04 07:39:18 51°11.167 2°42.742 265.2 11 263 12.2
2009-08-04 07:39:23 51°11.165 2°42.717 264.9 11 263 12.2
2009-08-04 07:39:28 51°11.163 2°42.693 265 11 264 12.2
2009-08-04 07:39:34 51°11.161 2°42.665 265.7 11 263 12.2
2009-08-04 07:39:38 51°11.16 2°42.645 265.7 10.7 263 12.1
2009-08-04 07:39:43 51°11.158 2°42.623 265.4 10.3 263 12.1
2009-08-04 07:39:48 51°11.156 2°42.601 265.1 9.8 263 12.1
2009-08-04 07:39:53 51°11.155 2°42.581 265.2 9.3 263 12.1
2009-08-04 07:39:58 51°11.153 2°42.561 265.7 8.8 263 12.1
2009-08-04 07:40:04 51°11.152 2°42.539 265.7 8.3 264 12.1
2009-08-04 07:40:08 51°11.151 2°42.525 265.7 8 263 12.2
2009-08-04 07:40:14 51°11.149 2°42.505 265.7 7.6 263 12.1
2009-08-04 07:40:18 51°11.148 2°42.492 265.7 7.4 263 12.1
2009-08-04 07:40:24 51°11.147 2°42.474 265.6 7.1 263 12.2
2009-08-04 07:40:29 51°11.145 2°42.459 265.4 6.8 262 12.2
2009-08-04 07:40:34 51°11.144 2°42.444 265.1 6.6 263 12.2
2009-08-04 07:40:38 51°11.143 2°42.433 265 6.3 262 12.1
2009-08-04 07:40:44 51°11.142 2°42.417 265 6.1 262 12.1
2009-08-04 07:40:49 51°11.141 2°42.404 265 5.9 262 12.1
2009-08-04 07:40:54 51°11.139 2°42.391 264.8 5.8 262 12.1
2009-08-04 07:40:58 51°11.139 2°42.382 264.5 5.6 262 12.1
2009-08-04 07:41:03 51°11.137 2°42.369 264.2 5.5 261 12
2009-08-04 07:41:09 51°11.136 2°42.355 263.9 5.4 261 12.1
2009-08-04 07:41:14 51°11.135 2°42.344 263.6 5.4 261 12
2009-08-04 07:41:18 51°11.134 2°42.334 263.6 5.3 261 12
2009-08-04 07:41:23 51°11.133 2°42.323 263.5 5.3 261 12
2009-08-04 07:41:28 51°11.131 2°42.312 263.5 5.2 261 12.1
2009-08-04 07:41:34 51°11.13 2°42.298 263.7 5.1 261 12
2009-08-04 07:41:38 51°11.129 2°42.289 264 5.1 261 12.1
2009-08-04 07:41:43 51°11.128 2°42.278 264.3 5 262 12.1
2009-08-04 07:41:48 51°11.127 2°42.268 264.7 4.9 262 12.1
2009-08-04 07:41:54 51°11.126 2°42.255 265.1 4.8 263 12
2009-08-04 07:41:58 51°11.126 2°42.246 265.5 4.7 262 12.1
2009-08-04 07:42:03 51°11.125 2°42.236 265.7 4.6 263 12
2009-08-04 07:42:08 51°11.124 2°42.226 265.8 4.5 262 12.1
2009-08-04 07:42:14 51°11.123 2°42.215 265.9 4.4 263 12
2009-08-04 07:42:18 51°11.122 2°42.207 265.9 4.3 262 12
2009-08-04 07:42:24 51°11.121 2°42.196 265.7 4.2 262 12
2009-08-04 07:42:28 51°11.121 2°42.189 265.6 4.1 262 12
2009-08-04 07:42:34 51°11.119 2°42.178 265.2 4.1 262 12
2009-08-04 07:42:38 51°11.119 2°42.171 264.9 3.9 261 11.9
2009-08-04 07:42:44 51°11.118 2°42.161 264.4 3.9 261 12
2009-08-04 07:42:49 51°11.117 2°42.153 264 3.8 260 12
2009-08-04 07:42:54 51°11.116 2°42.145 263.6 3.6 260 12
2009-08-04 07:42:58 51°11.115 2°42.139 263.1 3.5 260 12
2009-08-04 07:43:04 51°11.115 2°42.13 262.5 3.3 260 12
2009-08-04 07:43:09 51°11.114 2°42.123 261.6 3.2 258 12
2009-08-04 07:43:14 51°11.113 2°42.117 260.7 2.9 258 11.9
2009-08-04 07:43:18 51°11.112 2°42.113 259.3 2.6 257 12
2009-08-04 07:43:23 51°11.111 2°42.108 257.2 2.2 255 12
2009-08-04 07:43:29 51°11.111 2°42.103 255.6 2 257 12
2009-08-04 07:43:34 51°11.11 2°42.099 255.1 1.8 256 12
2009-08-04 07:43:38 51°11.109 2°42.096 255.3 1.6 257 12
2009-08-04 07:43:43 51°11.109 2°42.093 255.9 1.5 255 12
2009-08-04 07:43:48 51°11.109 2°42.09 257 1.3 257 12
2009-08-04 07:43:54 51°11.108 2°42.087 258.2 1.1 257 12
2009-08-04 07:43:58 51°11.108 2°42.086 259.2 0.9 255 12
2009-08-04 07:44:03 51°11.108 2°42.084 259.9 0.9 258 12
2009-08-04 07:44:08 51°11.107 2°42.082 260.5 0.9 257 11.9
2009-08-04 07:44:14 51°11.107 2°42.08 260.7 0.9 258 12
2009-08-04 07:44:18 51°11.107 2°42.078 260.8 0.9 259 12
2009-08-04 07:44:23 51°11.107 2°42.076 260.8 0.9 260 12
2009-08-04 07:44:28 51°11.106 2°42.075 260.8 0.9 258 12
2009-08-04 07:44:34 51°11.106 2°42.072 260.6 0.9 261 12
2009-08-04 07:44:38 51°11.106 2°42.071 260.5 0.9 259 12
2009-08-04 07:44:44 51°11.106 2°42.069 260.4 0.9 261 12
2009-08-04 07:44:48 51°11.106 2°42.067 260.4 0.8 260 12
2009-08-04 07:44:54 51°11.106 2°42.065 260.3 0.9 264 12
2009-08-04 07:44:58 51°11.105 2°42.063 260.3 0.9 260 12
2009-08-04 07:45:04 51°11.105 2°42.061 260.4 0.9 263 12